Bookmark and Share
Track history (hours):
 

Toyo Maru

Last reported at 2014-Apr-23 13:33 UTC. Time now 2014-Apr-23 19:08 UTC.
Position N 34°53' E 139°26'.

Length 125 m; draft 6 m.

Type: Cargo ship. MMSI: 431401953.

NotesDate/timePositionNaut miles runAvg speedWind from/ knotsBaromVisibWave heightAir tempDewpointWater temp
2014-Apr-23 13:33N 34°53' E 139°26'1818.3
2014-Apr-23 12:33N 35°06' E 139°41'1313.2
2014-Apr-23 11:33N 35°19' E 139°43'1514.6
2014-Apr-23 10:33N 35°31' E 139°54'1110.7
2014-Apr-23 09:30N 35°36' E 140°06'0 0.0
2014-Apr-23 08:27N 35°36' E 140°06'0 0.0
2014-Apr-23 07:33N 35°36' E 140°06'0 0.0
2014-Apr-23 06:33N 35°36' E 140°06'1 1.2
2014-Apr-23 05:28N 35°37' E 140°05'0 0.0
2014-Apr-23 04:31N 35°37' E 140°05'0 0.0
2014-Apr-23 03:28N 35°37' E 140°05'0 0.0
2014-Apr-23 02:19N 35°37' E 140°05'0 0.0
2014-Apr-23 01:19N 35°37' E 140°05'0 0.0
2014-Apr-23 00:31N 35°37' E 140°05'0 0.0
2014-Apr-22 23:28N 35°37' E 140°05'0 0.0
2014-Apr-22 22:18N 35°37' E 140°05'4 5.6
2014-Apr-22 21:33N 35°34' E 140°01'1616.1
2014-Apr-22 20:34N 35°24' E 139°46'1211.6
2014-Apr-22 19:33N 35°12' E 139°46'1716.5
2014-Apr-22 18:33N 34°59' E 139°34'242 8.9
2014-Apr-21 15:26N 34°04' E 134°48'  
2014-Apr-18 12:33N 34°58' E 139°31'1818.4
2014-Apr-18 11:33N 35°11' E 139°46'1313.4
2014-Apr-18 10:33N 35°25' E 139°43'1818.1
2014-Apr-18 09:33N 35°35' E 140°02'4 3.4
2014-Apr-18 08:31N 35°36' E 140°06'0 0.0
2014-Apr-18 07:31N 35°36' E 140°06'0 0.0
2014-Apr-18 06:33N 35°36' E 140°06'0 0.0
2014-Apr-18 05:33N 35°36' E 140°06'1 1.3
2014-Apr-18 04:32N 35°37' E 140°05'0 0.0
2014-Apr-18 03:26N 35°37' E 140°05'0 0.0
2014-Apr-18 02:32N 35°37' E 140°05'0 0.0
2014-Apr-18 01:32N 35°37' E 140°05'0 0.0
2014-Apr-18 00:32N 35°37' E 140°05'0 0.0
2014-Apr-17 23:32N 35°37' E 140°05'0 0.0
2014-Apr-17 22:32N 35°37' E 140°05'4 3.8
2014-Apr-17 21:33N 35°35' E 140°01'1515.4
2014-Apr-17 20:34N 35°25' E 139°47'1111.3
2014-Apr-17 19:33N 35°13' E 139°47'1615.9
2014-Apr-17 18:33N 34°60' E 139°37'245 9.8
2014-Apr-16 17:29N 34°04' E 134°47'  
2014-Apr-14 10:33N 34°55' E 139°27'1818.0
2014-Apr-14 09:33N 35°07' E 139°43'1313.4
2014-Apr-14 08:34N 35°20' E 139°43'1616.4
2014-Apr-14 07:34N 35°32' E 139°57'9 4.2
2014-Apr-14 05:31N 35°36' E 140°06'1 0.2
2014-Apr-13 22:32N 35°37' E 140°05'0 0.0
2014-Apr-13 21:32N 35°37' E 140°05'0 0.0
2014-Apr-13 20:32N 35°37' E 140°05'0 0.0
2014-Apr-13 19:11N 35°37' E 140°05'0 0.0
2014-Apr-13 18:29N 35°37' E 140°05'0 0.0
2014-Apr-13 17:32N 35°37' E 140°05'0 0.0
2014-Apr-13 16:32N 35°37' E 140°05'0 0.0
2014-Apr-13 15:26N 35°37' E 140°05'0 0.0
2014-Apr-13 14:32N 35°37' E 140°05'  

Dump ship's entire track history

sailing weather and tide predictions

Toyo Maru — JI3710 — position and weather